Time;durP1;ratioP1;P1;durP2;ratioP2;P2;SDS_P1;SDS_P2;PMS_P1;PMS_P2;Temp;Humidity;BMP_temperature;BMP_pressure;BME280_temperature;BME280_humidity;BME280_pressure;Samples;Min_cycle;Max_cycle;Signal;HPM_P1;HPM_P2
2023/01/01 00:01:06;;;;;;;21.70;10.10;;;14.10;99.90;;;;;;5095370;27;20414;-77
2023/01/01 00:03:32;;;;;;;23.38;9.18;;;;;;;;;;5118072;27;20449;-79
2023/01/01 00:05:58;;;;;;;21.00;8.45;;;;;;;;;;5107988;27;20817;-79
2023/01/01 00:08:24;;;;;;;20.90;9.20;;;;;;;;;;5098948;27;20418;-79
2023/01/01 00:10:50;;;;;;;20.10;11.52;;;;;;;;;;5119874;27;20464;-79
2023/01/01 00:13:16;;;;;;;19.47;9.57;;;;;;;;;;5114430;27;20412;-79
2023/01/01 00:15:42;;;;;;;19.40;9.77;;;;;;;;;;5092469;28;20915;-79
2023/01/01 00:18:08;;;;;;;20.30;11.02;;;;;;;;;;5099976;27;20452;-79
2023/01/01 00:20:34;;;;;;;19.95;10.27;;;;;;;;;;5100141;27;20422;-79
2023/01/01 00:23:00;;;;;;;19.83;9.83;;;;;;;;;;5101909;28;20462;-79
2023/01/01 00:25:27;;;;;;;19.83;10.38;;;;;;;;;;5103309;27;20406;-78
2023/01/01 00:27:53;;;;;;;19.48;10.02;;;;;;;;;;5110739;27;20419;-79
2023/01/01 00:30:19;;;;;;;22.52;10.85;;;;;;;;;;5111048;27;20523;-79
2023/01/01 00:32:45;;;;;;;21.50;10.33;;;;;;;;;;5101591;27;20486;-79
2023/01/01 00:35:11;;;;;;;21.02;10.82;;;;;;;;;;5091681;28;20420;-79
2023/01/01 00:37:37;;;;;;;27.92;11.52;;;;;;;;;;5103107;28;20759;-79
2023/01/01 00:40:03;;;;;;;21.00;11.70;;;;;;;;;;5095909;28;20404;-79
2023/01/01 00:42:29;;;;;;;25.27;12.35;;;;;;;;;;5089256;28;20899;-79
2023/01/01 00:44:55;;;;;;;24.38;12.85;;;;;;;;;;5110299;27;20418;-78
2023/01/01 00:47:21;;;;;;;25.88;13.90;;;;;;;;;;5092551;28;20990;-79
2023/01/01 00:49:47;;;;;;;25.33;14.70;;;;;;;;;;5095520;28;20772;-79
2023/01/01 00:52:13;;;;;;;24.60;13.65;;;;;;;;;;5105753;28;20497;-79
2023/01/01 00:54:39;;;;;;;29.17;15.38;;;;;;;;;;5086119;28;20421;-79
2023/01/01 00:57:06;;;;;;;29.65;16.08;;;;;;;;;;5102412;28;20429;-79
2023/01/01 00:59:32;;;;;;;39.83;25.05;;;;;;;;;;5104922;28;20424;-79
2023/01/01 01:01:58;;;;;;;47.33;32.50;;;;;;;;;;5098920;28;21593;-79
2023/01/01 01:04:24;;;;;;;26.90;16.50;;;13.50;99.90;;;;;;5103661;28;20422;-78
2023/01/01 01:06:50;;;;;;;29.10;17.65;;;;;;;;;;5101755;28;20495;-78
2023/01/01 01:09:16;;;;;;;29.33;17.75;;;;;;;;;;5099331;28;20417;-78
2023/01/01 01:11:42;;;;;;;34.63;19.30;;;;;;;;;;5102399;28;20473;-78
2023/01/01 01:14:08;;;;;;;30.58;18.98;;;;;;;;;;5099504;28;20769;-78
2023/01/01 01:16:34;;;;;;;32.17;20.35;;;;;;;;;;5106575;28;20418;-78
2023/01/01 01:19:02;;;;;;;32.13;21.13;;;13.30;99.90;;;;;;5088080;28;20450;-78
2023/01/01 01:21:29;;;;;;;33.70;21.40;;;;;;;;;;5104557;28;20414;-78
2023/01/01 01:23:57;;;;;;;34.20;21.92;;;;;;;;;;5105621;28;20514;-79
2023/01/01 01:26:24;;;;;;;33.53;22.80;;;;;;;;;;5101715;28;20416;-79
2023/01/01 01:28:51;;;;;;;35.67;21.63;;;;;;;;;;5103345;28;20420;-79
2023/01/01 01:31:18;;;;;;;34.75;23.15;;;;;;;;;;5092631;28;20451;-79
2023/01/01 01:33:44;;;;;;;32.10;22.85;;;;;;;;;;5091002;28;20468;-79
2023/01/01 01:36:11;;;;;;;35.88;22.23;;;;;;;;;;5103792;28;20421;-79
2023/01/01 01:38:37;;;;;;;33.63;23.10;;;;;;;;;;5083637;28;20802;-79
2023/01/01 01:41:03;;;;;;;37.85;24.85;;;;;;;;;;5076190;28;20455;-79
2023/01/01 01:43:33;;;;;;;39.53;26.02;;;;;;;;;;5088454;28;20805;-79
2023/01/01 01:46:11;;;;;;;46.08;28.80;;;;;;;;;;5097860;28;20416;-80
2023/01/01 01:48:42;;;;;;;44.45;31.40;;;13.40;99.90;;;;;;5103390;28;20462;-79
2023/01/01 01:51:09;;;;;;;44.30;32.03;;;13.10;99.90;;;;;;5085243;28;20432;-79
2023/01/01 01:53:37;;;;;;;51.77;34.00;;;;;;;;;;5098573;28;20888;-79
2023/01/01 01:56:07;;;;;;;49.58;34.75;;;12.90;99.90;;;;;;5085707;28;20413;-79
2023/01/01 01:58:33;;;;;;;44.45;32.85;;;;;;;;;;5101743;28;20464;-79
2023/01/01 02:01:00;;;;;;;50.60;33.00;;;;;;;;;;5097819;28;20947;-79
2023/01/01 02:03:57;;;;;;;49.58;33.42;;;12.50;99.90;;;;;;5098205;28;20420;-79
2023/01/01 02:06:24;;;;;;;45.37;32.70;;;;;;;;;;5090976;28;20540;-79
2023/01/01 02:08:50;;;;;;;47.80;33.13;;;;;;;;;;5084083;28;20425;-80
2023/01/01 02:11:16;;;;;;;47.47;34.25;;;;;;;;;;5104343;28;20410;-80
2023/01/01 02:13:43;;;;;;;48.45;35.08;;;;;;;;;;5095882;28;20441;-80
2023/01/01 02:16:18;;;;;;;46.78;32.00;;;;;;;;;;5115666;28;20426;-81
2023/01/01 02:19:03;;;;;;;45.38;29.75;;;;;;;;;;5106027;28;20729;-81
2023/01/01 02:21:35;;;;;;;42.83;27.00;;;;;;;;;;5099472;28;20846;-81
2023/01/01 02:24:22;;;;;;;40.38;28.13;;;;;;;;;;5106624;28;20459;-80
2023/01/01 02:26:57;;;;;;;38.10;25.48;;;;;;;;;;5094111;28;20773;-81
2023/01/01 02:29:29;;;;;;;36.67;24.60;;;;;;;;;;5094677;28;20422;-80
2023/01/01 02:32:01;;;;;;;33.83;23.43;;;;;;;;;;5101541;28;20540;-80
2023/01/01 02:34:30;;;;;;;34.38;22.17;;;;;;;;;;5092811;28;20444;-80
2023/01/01 02:36:57;;;;;;;36.43;21.80;;;;;;;;;;5097095;28;20412;-81
2023/01/01 02:39:25;;;;;;;27.95;19.15;;;;;;;;;;5101157;28;20410;-81
2023/01/01 02:41:53;;;;;;;30.88;20.42;;;13.10;99.90;;;;;;5103826;28;20444;-81
2023/01/01 02:44:21;;;;;;;31.48;18.13;;;;;;;;;;5087012;28;20917;-80
2023/01/01 02:46:47;;;;;;;30.77;18.33;;;;;;;;;;5092246;28;20422;-81
2023/01/01 02:49:13;;;;;;;28.90;17.02;;;;;;;;;;5074671;28;20416;-80
2023/01/01 02:51:54;;;;;;;30.10;16.33;;;;;;;;;;5111950;28;20413;-80
2023/01/01 02:54:33;;;;;;;29.60;16.27;;;;;;;;;;5107841;28;20483;-80
2023/01/01 02:57:40;;;;;;;22.42;13.73;;;13.00;99.90;;;;;;5114523;28;20414;-80
2023/01/01 03:00:27;;;;;;;25.10;14.48;;;;;;;;;;5105709;28;20418;-81
2023/01/01 03:03:16;;;;;;;25.15;13.15;;;13.20;99.90;;;;;;5108739;28;20424;-81
2023/01/01 03:06:22;;;;;;;22.80;11.73;;;13.40;99.90;;;;;;5106926;28;20833;-79
2023/01/01 03:08:54;;;;;;;22.35;11.57;;;;;;;;;;5076575;28;20747;-80
2023/01/01 03:11:23;;;;;;;19.70;10.68;;;13.30;99.90;;;;;;5095611;28;20415;-79
2023/01/01 03:13:49;;;;;;;20.00;10.48;;;;;;;;;;5127238;27;20450;-80
2023/01/01 03:16:52;;;;;;;19.48;10.05;;;12.70;99.90;;;;;;5112025;27;20960;-80
2023/01/01 03:19:23;;;;;;;18.60;9.50;;;;;;;;;;5097224;27;20470;-80
2023/01/01 03:21:51;;;;;;;18.85;9.55;;;;;;;;;;5116205;27;20758;-80
2023/01/01 03:24:19;;;;;;;19.90;8.82;;;;;;;;;;5086123;28;20760;-80
2023/01/01 03:26:48;;;;;;;17.50;9.23;;;13.10;99.90;;;;;;5095308;27;20539;-80
2023/01/01 03:29:15;;;;;;;17.60;8.65;;;;;;;;;;5103160;27;20448;-80
2023/01/01 03:31:43;;;;;;;23.70;11.93;;;;;;;;;;5093721;27;20419;-81
2023/01/01 03:34:12;;;;;;;22.77;13.23;;;;;;;;;;5102574;27;20499;-82
2023/01/01 03:36:41;;;;;;;20.27;9.70;;;;;;;;;;5091563;27;20504;-81
2023/01/01 03:39:33;;;;;;;24.25;10.35;;;12.00;99.90;;;;;;5097531;27;20833;-81
2023/01/01 03:41:59;;;;;;;20.15;9.90;;;;;;;;;;5104622;27;20933;-79
2023/01/01 03:44:29;;;;;;;23.98;9.65;;;;;;;;;;5097126;27;20429;-79
2023/01/01 03:46:58;;;;;;;22.60;10.40;;;;;;;;;;5086446;28;20447;-79
2023/01/01 03:49:25;;;;;;;22.90;9.40;;;;;;;;;;5087950;27;20578;-79
2023/01/01 03:52:03;;;;;;;22.80;8.90;;;;;;;;;;5109827;27;20410;-79
2023/01/01 03:54:36;;;;;;;22.60;9.55;;;;;;;;;;5113927;27;20416;-79
2023/01/01 03:57:05;;;;;;;21.42;8.90;;;;;;;;;;5100135;27;20446;-80
2023/01/01 03:59:38;;;;;;;21.30;8.90;;;;;;;;;;5113723;27;20418;-79
2023/01/01 04:02:07;;;;;;;16.80;8.07;;;11.20;99.90;;;;;;5092675;28;20451;-78
2023/01/01 04:04:34;;;;;;;18.60;8.07;;;11.70;99.90;;;;;;5103793;27;20605;-78
2023/01/01 04:07:00;;;;;;;19.33;7.93;;;;;;;;;;5102336;27;20429;-78
2023/01/01 04:09:31;;;;;;;17.83;7.57;;;12.00;99.90;;;;;;5113232;27;20410;-78
2023/01/01 04:12:01;;;;;;;19.17;7.90;;;;;;;;;;5113497;27;20414;-78
2023/01/01 04:14:39;;;;;;;19.98;8.50;;;11.60;99.90;;;;;;5110372;27;20427;-78
2023/01/01 04:17:06;;;;;;;25.35;11.45;;;;;;;;;;5093962;27;21054;-78
2023/01/01 04:19:32;;;;;;;25.35;13.02;;;;;;;;;;5121963;27;20430;-78
2023/01/01 04:21:59;;;;;;;30.57;13.93;;;;;;;;;;5117789;27;20422;-79
2023/01/01 04:24:25;;;;;;;27.25;13.27;;;;;;;;;;5117387;27;20458;-78
2023/01/01 04:26:51;;;;;;;27.23;12.85;;;;;;;;;;5103250;27;20485;-78
2023/01/01 04:29:18;;;;;;;26.95;12.38;;;;;;;;;;5094127;28;20416;-79
2023/01/01 04:31:44;;;;;;;23.50;10.85;;;;;;;;;;5108678;27;20410;-79
2023/01/01 04:34:10;;;;;;;18.55;8.63;;;;;;;;;;5097484;28;20460;-78
2023/01/01 04:36:36;;;;;;;16.73;6.70;;;;;;;;;;5102267;27;20503;-78
2023/01/01 04:39:03;;;;;;;19.52;7.32;;;;;;;;;;5100916;27;20549;-78
2023/01/01 04:41:29;;;;;;;16.70;5.80;;;;;;;;;;5117235;27;20442;-78
2023/01/01 04:43:55;;;;;;;15.20;5.72;;;;;;;;;;5112286;27;20418;-78
2023/01/01 04:46:22;;;;;;;14.90;5.30;;;11.50;99.90;;;;;;5088661;27;20491;-78
2023/01/01 04:48:48;;;;;;;14.80;4.80;;;;;;;;;;5116908;27;20508;-78
2023/01/01 04:51:15;;;;;;;14.63;4.93;;;;;;;;;;5119981;27;20416;-78
2023/01/01 04:53:41;;;;;;;15.73;4.77;;;;;;;;;;5104455;27;20509;-78
2023/01/01 04:56:11;;;;;;;14.50;4.43;;;;;;;;;;5108717;27;20771;-78
2023/01/01 04:58:38;;;;;;;11.17;4.40;;;;;;;;;;5106905;28;20449;-78
2023/01/01 05:01:04;;;;;;;13.75;4.25;;;;;;;;;;5105304;27;20459;-78
2023/01/01 05:03:31;;;;;;;14.70;4.40;;;;;;;;;;5112172;27;20491;-78
2023/01/01 05:06:05;;;;;;;13.27;4.20;;;11.70;99.90;;;;;;5108757;27;20497;-78
2023/01/01 05:08:32;;;;;;;10.57;4.30;;;;;;;;;;5110371;27;20435;-79
2023/01/01 05:11:06;;;;;;;14.52;4.60;;;11.50;99.90;;;;;;5118149;27;20446;-78
2023/01/01 05:13:34;;;;;;;10.65;4.28;;;11.60;99.90;;;;;;5107865;27;20418;-78
2023/01/01 05:16:07;;;;;;;11.57;4.10;;;11.60;99.90;;;;;;5122658;27;20453;-78
2023/01/01 05:18:34;;;;;;;13.45;4.20;;;;;;;;;;5099352;27;20497;-78
2023/01/01 05:21:06;;;;;;;13.23;4.28;;;11.60;99.90;;;;;;5110755;27;20493;-79
2023/01/01 05:23:33;;;;;;;10.27;4.37;;;;;;;;;;5125100;27;20468;-78
2023/01/01 05:25:59;;;;;;;13.68;4.03;;;;;;;;;;5101722;27;20425;-78
2023/01/01 05:28:25;;;;;;;11.32;3.92;;;;;;;;;;5111406;27;20481;-78
2023/01/01 05:30:51;;;;;;;13.23;3.93;;;;;;;;;;5102416;27;20420;-78
2023/01/01 05:33:17;;;;;;;15.85;4.20;;;;;;;;;;5104903;27;20941;-78
2023/01/01 05:35:44;;;;;;;14.05;3.95;;;;;;;;;;5107109;28;20404;-78
2023/01/01 05:38:10;;;;;;;11.85;3.10;;;;;;;;;;5111476;27;20417;-78
2023/01/01 05:40:39;;;;;;;7.10;2.93;;;;;;;;;;5106914;27;20426;-79
2023/01/01 05:43:06;;;;;;;12.70;3.20;;;11.80;99.90;;;;;;5108502;27;20461;-79
2023/01/01 05:45:32;;;;;;;6.72;2.30;;;;;;;;;;5104336;28;20802;-79
2023/01/01 05:47:58;;;;;;;6.25;2.13;;;;;;;;;;5116810;27;20984;-79
2023/01/01 05:50:24;;;;;;;7.95;2.80;;;;;;;;;;5107504;28;20423;-78
2023/01/01 05:52:50;;;;;;;7.85;2.20;;;;;;;;;;5119049;27;20423;-79
2023/01/01 05:55:16;;;;;;;7.20;2.08;;;;;;;;;;5109457;28;20414;-78
2023/01/01 05:57:42;;;;;;;8.15;2.40;;;;;;;;;;5114536;27;20427;-78
2023/01/01 06:00:09;;;;;;;9.57;2.47;;;;;;;;;;5108516;28;20988;-78
2023/01/01 06:02:35;;;;;;;9.43;2.72;;;;;;;;;;5120072;28;20419;-78
2023/01/01 06:05:01;;;;;;;9.95;2.65;;;;;;;;;;5106350;28;20416;-78
2023/01/01 06:07:27;;;;;;;9.63;2.30;;;;;;;;;;5098269;28;20414;-78
2023/01/01 06:09:53;;;;;;;9.65;2.22;;;;;;;;;;5099920;28;20420;-79
2023/01/01 06:12:19;;;;;;;8.52;1.90;;;;;;;;;;5077695;28;20431;-78
2023/01/01 06:14:45;;;;;;;7.65;2.22;;;;;;;;;;5102264;28;20423;-75
2023/01/01 06:17:11;;;;;;;7.60;1.90;;;;;;;;;;5103828;27;20412;-74
2023/01/01 06:19:37;;;;;;;6.35;1.80;;;;;;;;;;5108497;28;20432;-74
2023/01/01 06:22:04;;;;;;;9.80;1.65;;;;;;;;;;5117606;28;20452;-74
2023/01/01 06:24:30;;;;;;;9.48;1.90;;;;;;;;;;5091056;28;20423;-74
2023/01/01 06:26:56;;;;;;;7.35;1.90;;;;;;;;;;5106065;28;20473;-74
2023/01/01 06:29:22;;;;;;;8.40;2.10;;;;;;;;;;5078728;28;20503;-74
2023/01/01 06:31:48;;;;;;;7.43;2.08;;;;;;;;;;5092091;28;20427;-74
2023/01/01 06:34:14;;;;;;;7.87;1.80;;;;;;;;;;5096094;28;20489;-74
2023/01/01 06:36:41;;;;;;;9.35;2.10;;;;;;;;;;5109088;28;20438;-74
2023/01/01 06:39:07;;;;;;;7.72;1.92;;;;;;;;;;5096798;28;20908;-74
2023/01/01 06:41:33;;;;;;;10.52;2.20;;;;;;;;;;5103565;28;20433;-75
2023/01/01 06:44:00;;;;;;;12.80;2.50;;;;;;;;;;5099444;28;20416;-75
2023/01/01 06:46:34;;;;;;;7.45;1.88;;;11.40;99.90;;;;;;5104752;28;20451;-75
2023/01/01 06:49:05;;;;;;;7.65;2.17;;;11.90;99.90;;;;;;5121287;27;20414;-74
2023/01/01 06:51:42;;;;;;;6.70;1.90;;;11.90;99.90;;;;;;5115490;27;20420;-75
2023/01/01 06:54:09;;;;;;;8.60;2.10;;;;;;;;;;5093599;27;20421;-74
2023/01/01 06:56:35;;;;;;;15.00;3.03;;;;;;;;;;5096152;28;20407;-75
2023/01/01 06:59:01;;;;;;;10.95;2.20;;;;;;;;;;5105339;27;20467;-75
2023/01/01 07:01:30;;;;;;;13.90;2.25;;;11.70;99.90;;;;;;5087034;27;20539;-75
2023/01/01 07:03:57;;;;;;;11.55;2.30;;;;;;;;;;5112865;27;20964;-75
2023/01/01 07:06:23;;;;;;;9.00;1.90;;;;;;;;;;5127040;27;20420;-74
2023/01/01 07:08:50;;;;;;;10.48;2.30;;;11.50;99.90;;;;;;5115329;27;20422;-75
2023/01/01 07:11:16;;;;;;;9.20;2.37;;;;;;;;;;5085944;28;20423;-73
2023/01/01 07:13:42;;;;;;;11.75;2.40;;;;;;;;;;5088684;27;20985;-74
2023/01/01 07:16:08;;;;;;;13.02;3.08;;;;;;;;;;5129020;27;20410;-74
2023/01/01 07:18:34;;;;;;;17.20;2.93;;;;;;;;;;5111851;27;20418;-74
2023/01/01 07:21:02;;;;;;;12.27;2.53;;;;;;;;;;5096067;28;20419;-74
2023/01/01 07:23:30;;;;;;;13.32;2.75;;;;;;;;;;5097238;27;20414;-74
2023/01/01 07:25:56;;;;;;;11.88;2.58;;;;;;;;;;5123190;27;20449;-74
2023/01/01 07:28:24;;;;;;;12.55;2.60;;;11.70;99.90;;;;;;5113437;27;20422;-74
2023/01/01 07:30:51;;;;;;;17.70;3.30;;;;;;;;;;5123574;27;20420;-74
2023/01/01 07:33:21;;;;;;;15.27;3.10;;;;;;;;;;5115106;27;20414;-74
2023/01/01 07:35:47;;;;;;;12.35;3.00;;;;;;;;;;5093857;27;20419;-74
2023/01/01 07:38:14;;;;;;;17.88;2.97;;;11.60;99.90;;;;;;5092103;27;20422;-74
2023/01/01 07:40:40;;;;;;;20.48;3.42;;;;;;;;;;5117923;27;21196;-74
2023/01/01 07:43:06;;;;;;;16.95;2.88;;;;;;;;;;5079133;28;20805;-74
2023/01/01 07:45:33;;;;;;;15.50;3.38;;;;;;;;;;5106305;27;20753;-74
2023/01/01 07:47:59;;;;;;;16.77;3.37;;;;;;;;;;5095577;27;20419;-73
2023/01/01 07:50:27;;;;;;;15.20;3.78;;;;;;;;;;5108494;27;20493;-74
2023/01/01 07:52:53;;;;;;;15.05;3.30;;;;;;;;;;5105025;27;20430;-74
2023/01/01 07:55:20;;;;;;;16.13;3.05;;;;;;;;;;5096171;28;20442;-74
2023/01/01 07:57:46;;;;;;;15.55;3.22;;;;;;;;;;5111487;28;20442;-74
2023/01/01 08:00:15;;;;;;;15.20;3.10;;;11.60;99.90;;;;;;5086093;28;20427;-74
2023/01/01 08:02:42;;;;;;;16.38;3.55;;;;;;;;;;5109053;28;20511;-74
2023/01/01 08:05:09;;;;;;;14.30;3.15;;;;;;;;;;5101686;28;20493;-77
2023/01/01 08:07:35;;;;;;;16.65;3.28;;;;;;;;;;5097186;28;20420;-74
2023/01/01 08:10:01;;;;;;;15.40;3.25;;;;;;;;;;5101287;28;20492;-75
2023/01/01 08:12:27;;;;;;;17.38;3.33;;;;;;;;;;5083308;28;20447;-73
2023/01/01 08:14:53;;;;;;;16.77;3.25;;;;;;;;;;5084479;28;20413;-73
2023/01/01 08:17:19;;;;;;;20.95;3.50;;;;;;;;;;5107892;28;20415;-73
2023/01/01 08:19:46;;;;;;;17.37;3.23;;;;;;;;;;5103941;28;20974;-74
2023/01/01 08:22:12;;;;;;;17.83;3.60;;;;;;;;;;5094077;28;20492;-74
2023/01/01 08:24:47;;;;;;;18.27;3.75;;;;;;;;;;5069976;28;20439;-74
2023/01/01 08:27:14;;;;;;;21.00;3.75;;;;;;;;;;5101363;28;20979;-75
2023/01/01 08:29:40;;;;;;;18.35;3.70;;;;;;;;;;5092405;28;20418;-74
2023/01/01 08:32:06;;;;;;;13.20;3.47;;;;;;;;;;5099944;28;20774;-75
2023/01/01 08:34:32;;;;;;;20.27;4.13;;;;;;;;;;5103681;28;20404;-75
2023/01/01 08:36:58;;;;;;;17.55;3.55;;;;;;;;;;5095678;28;20547;-75
2023/01/01 08:39:25;;;;;;;18.63;3.92;;;;;;;;;;5079436;28;20414;-75
2023/01/01 08:41:51;;;;;;;21.65;3.95;;;;;;;;;;5072656;28;20920;-75
2023/01/01 08:44:17;;;;;;;18.10;3.78;;;;;;;;;;5098229;28;20503;-75
2023/01/01 08:46:43;;;;;;;19.38;3.75;;;;;;;;;;5089669;28;20412;-75
2023/01/01 08:49:09;;;;;;;18.63;3.70;;;;;;;;;;5094680;28;20408;-75
2023/01/01 08:51:35;;;;;;;16.58;3.88;;;;;;;;;;5080270;28;20774;-75
2023/01/01 08:54:01;;;;;;;15.73;2.97;;;;;;;;;;5062666;28;20435;-76
2023/01/01 08:56:27;;;;;;;20.63;4.18;;;;;;;;;;5093908;28;21036;-76
2023/01/01 08:58:53;;;;;;;17.23;3.40;;;;;;;;;;5090088;28;20487;-75
2023/01/01 09:01:25;;;;;;;21.40;3.75;;;;;;;;;;5095552;28;20425;-75
2023/01/01 09:03:51;;;;;;;14.30;3.30;;;;;;;;;;5095904;28;20412;-75
2023/01/01 09:06:17;;;;;;;18.83;3.78;;;;;;;;;;5098786;28;20502;-74
2023/01/01 09:08:43;;;;;;;15.30;3.33;;;;;;;;;;5100744;28;20919;-75
2023/01/01 09:11:26;;;;;;;17.70;3.25;;;;;;;;;;5092639;28;20426;-75
2023/01/01 09:13:52;;;;;;;21.15;3.95;;;;;;;;;;5094195;28;20842;-76
2023/01/01 09:16:19;;;;;;;19.93;3.60;;;;;;;;;;5094361;28;20417;-75
2023/01/01 09:18:45;;;;;;;20.10;3.85;;;;;;;;;;5087534;28;20420;-75
2023/01/01 09:21:11;;;;;;;18.37;3.57;;;;;;;;;;5106649;28;20420;-75
2023/01/01 09:23:37;;;;;;;20.73;3.63;;;;;;;;;;5103339;28;20918;-74
2023/01/01 09:26:04;;;;;;;20.25;4.10;;;;;;;;;;5094568;28;20430;-75
2023/01/01 09:28:30;;;;;;;17.52;3.70;;;;;;;;;;5094455;27;20929;-74
2023/01/01 09:30:57;;;;;;;18.42;3.55;;;;;;;;;;5085468;28;20947;-75
2023/01/01 09:33:23;;;;;;;20.38;4.45;;;;;;;;;;5104015;28;20780;-75
2023/01/01 09:35:49;;;;;;;15.93;3.83;;;;;;;;;;5085877;28;20414;-73
2023/01/01 09:38:15;;;;;;;21.58;4.10;;;;;;;;;;5083632;28;20516;-74
2023/01/01 09:40:54;;;;;;;21.17;3.90;;;;;;;;;;5103341;28;20517;-75
2023/01/01 09:43:24;;;;;;;18.73;3.78;;;;;;;;;;5095605;28;20439;-74
2023/01/01 09:45:59;;;;;;;22.23;3.95;;;11.10;99.90;;;;;;5080399;28;20421;-75
2023/01/01 09:48:27;;;;;;;17.38;3.83;;;;;;;;;;5093086;28;20446;-75
2023/01/01 09:50:53;;;;;;;20.50;3.78;;;;;;;;;;5082863;28;20433;-74
2023/01/01 09:53:19;;;;;;;16.60;3.45;;;;;;;;;;5099275;28;20974;-74
2023/01/01 09:55:52;;;;;;;15.90;3.88;;;11.50;99.90;;;;;;5104152;28;20517;-74
2023/01/01 09:58:24;;;;;;;23.65;4.13;;;11.50;99.90;;;;;;5092231;28;20414;-75
2023/01/01 10:00:53;;;;;;;17.63;3.60;;;;;;;;;;5090305;28;20439;-74
2023/01/01 10:03:28;;;;;;;21.88;4.50;;;11.70;99.90;;;;;;5078190;28;20426;-74
2023/01/01 10:05:54;;;;;;;22.13;4.20;;;;;;;;;;5074817;28;20945;-75
2023/01/01 10:08:39;;;;;;;19.10;3.85;;;;;;;;;;5100119;28;20544;-76
2023/01/01 10:11:24;;;;;;;18.15;3.92;;;;;;;;;;5072643;28;20422;-75
2023/01/01 10:13:51;;;;;;;19.00;3.72;;;;;;;;;;5091819;28;20416;-76
2023/01/01 10:16:29;;;;;;;14.65;3.40;;;;;;;;;;5093271;28;20423;-77
2023/01/01 10:18:57;;;;;;;19.25;3.67;;;;;;;;;;5093901;28;20426;-75
2023/01/01 10:21:23;;;;;;;19.70;4.13;;;;;;;;;;5104490;28;20447;-76
2023/01/01 10:23:52;;;;;;;19.70;3.85;;;;;;;;;;5101650;28;20421;-75
2023/01/01 10:26:22;;;;;;;17.42;3.60;;;;;;;;;;5098733;28;20416;-75
2023/01/01 10:28:51;;;;;;;18.38;3.72;;;;;;;;;;5095665;28;20838;-75
2023/01/01 10:31:18;;;;;;;21.23;3.83;;;;;;;;;;5105958;28;20994;-74
2023/01/01 10:33:48;;;;;;;17.08;3.53;;;;;;;;;;5086434;28;20503;-74
2023/01/01 10:36:18;;;;;;;15.63;3.47;;;11.80;99.90;;;;;;5087392;28;20443;-74
2023/01/01 10:38:44;;;;;;;14.93;3.58;;;;;;;;;;5096398;27;20713;-74
2023/01/01 10:41:11;;;;;;;18.42;3.20;;;12.00;99.90;;;;;;5098432;28;20422;-74
2023/01/01 10:43:38;;;;;;;14.40;3.13;;;;;;;;;;5103123;28;20423;-74
2023/01/01 10:46:04;;;;;;;16.65;3.20;;;;;;;;;;5099371;28;20820;-73
2023/01/01 10:48:32;;;;;;;16.00;3.30;;;11.40;99.90;;;;;;5108809;28;20429;-72
2023/01/01 10:50:58;;;;;;;14.43;3.67;;;;;;;;;;5085376;28;20880;-74
2023/01/01 10:53:30;;;;;;;21.60;3.75;;;;;;;;;;5087816;28;20429;-75
2023/01/01 10:56:02;;;;;;;17.92;3.45;;;;;;;;;;5097194;28;20923;-75
2023/01/01 10:58:34;;;;;;;15.35;3.42;;;;;;;;;;5100992;28;20412;-75
2023/01/01 11:01:03;;;;;;;8.88;2.40;;;;;;;;;;5084113;28;20425;-74
2023/01/01 11:03:29;;;;;;;13.57;2.97;;;;;;;;;;5093827;28;21006;-75
2023/01/01 11:05:59;;;;;;;13.77;2.80;;;;;;;;;;5105512;28;20467;-74
2023/01/01 11:08:25;;;;;;;17.10;3.10;;;;;;;;;;5102237;28;20418;-74
2023/01/01 11:10:52;;;;;;;14.90;2.85;;;;;;;;;;5104567;28;20924;-75
2023/01/01 11:13:19;;;;;;;14.18;3.08;;;;;;;;;;5087078;28;20774;-75
2023/01/01 11:15:46;;;;;;;11.20;2.60;;;;;;;;;;5097292;28;20417;-75
2023/01/01 11:18:13;;;;;;;14.53;2.50;;;;;;;;;;5102107;28;20457;-74
2023/01/01 11:20:40;;;;;;;12.48;2.83;;;;;;;;;;5100850;28;20419;-74
2023/01/01 11:23:18;;;;;;;10.35;2.55;;;;;;;;;;5082941;28;20417;-74
2023/01/01 11:25:58;;;;;;;13.13;3.05;;;12.00;99.90;;;;;;5100401;27;20481;-74
2023/01/01 11:28:25;;;;;;;13.83;2.97;;;;;;;;;;5087597;28;20481;-74
2023/01/01 11:31:09;;;;;;;15.70;2.78;;;;;;;;;;5086901;28;20426;-74
2023/01/01 11:33:37;;;;;;;10.38;2.55;;;;;;;;;;5099401;28;20521;-74
2023/01/01 11:36:04;;;;;;;14.40;2.85;;;;;;;;;;5095515;28;20427;-74
2023/01/01 11:38:30;;;;;;;14.40;2.47;;;;;;;;;;5097041;28;20495;-74
2023/01/01 11:41:03;;;;;;;14.35;2.42;;;11.80;99.90;;;;;;5082602;28;20434;-74
2023/01/01 11:43:35;;;;;;;14.15;2.70;;;11.90;99.90;;;;;;5097273;28;20423;-74
2023/01/01 11:46:07;;;;;;;12.60;2.35;;;11.90;99.90;;;;;;5096921;28;20431;-73
2023/01/01 11:48:35;;;;;;;16.90;3.05;;;12.00;99.90;;;;;;5093198;28;20420;-75
2023/01/01 11:51:03;;;;;;;16.55;2.75;;;11.90;99.90;;;;;;5104646;28;20425;-74
2023/01/01 11:53:40;;;;;;;12.43;2.47;;;;;;;;;;5102184;28;20421;-74
2023/01/01 11:56:22;;;;;;;10.95;2.40;;;;;;;;;;5109938;27;20408;-74
2023/01/01 11:58:54;;;;;;;14.00;2.80;;;12.20;99.90;;;;;;5107096;27;20413;-74
2023/01/01 12:01:20;;;;;;;14.23;2.75;;;;;;;;;;5111406;27;20418;-74
2023/01/01 12:03:53;;;;;;;12.20;2.50;;;;;;;;;;5103494;28;20436;-74
2023/01/01 12:06:35;;;;;;;17.83;3.05;;;12.60;99.90;;;;;;5086464;28;20421;-74
2023/01/01 12:09:05;;;;;;;13.55;3.00;;;;;;;;;;5095159;27;20874;-74
2023/01/01 12:11:44;;;;;;;15.33;3.00;;;;;;;;;;5116143;27;21006;-74
2023/01/01 12:14:16;;;;;;;14.75;2.70;;;;;;;;;;5108029;27;20439;-73
2023/01/01 12:17:04;;;;;;;14.03;3.23;;;12.20;99.90;;;;;;5118867;27;20412;-74
2023/01/01 12:19:48;;;;;;;13.20;2.90;;;12.50;99.90;;;;;;5107446;27;20474;-74
2023/01/01 12:22:17;;;;;;;16.92;3.88;;;12.20;99.90;;;;;;5111407;27;20412;-74
2023/01/01 12:24:43;;;;;;;12.40;2.90;;;;;;;;;;5098769;27;20466;-74
2023/01/01 12:27:36;;;;;;;15.80;2.80;;;;;;;;;;5099082;28;21007;-74
2023/01/01 12:30:11;;;;;;;15.52;3.25;;;;;;;;;;5104429;27;20428;-73
2023/01/01 12:32:46;;;;;;;13.30;3.08;;;;;;;;;;5112174;27;20406;-74
2023/01/01 12:35:31;;;;;;;15.38;3.13;;;;;;;;;;5081232;27;20507;-74
2023/01/01 12:38:03;;;;;;;13.40;2.53;;;;;;;;;;5106716;27;20489;-74
2023/01/01 12:40:32;;;;;;;13.87;3.13;;;;;;;;;;5109572;27;20424;-73
2023/01/01 12:42:58;;;;;;;13.13;3.05;;;;;;;;;;5117181;27;20481;-74
2023/01/01 12:45:24;;;;;;;15.85;3.20;;;;;;;;;;5107020;27;20432;-74
2023/01/01 12:48:15;;;;;;;15.77;2.67;;;12.10;99.90;;;;;;5093748;27;20420;-73
2023/01/01 12:50:44;;;;;;;12.93;2.90;;;;;;;;;;5106475;27;20427;-74
2023/01/01 12:53:37;;;;;;;11.93;2.70;;;12.10;99.90;;;;;;5119522;27;20489;-74
2023/01/01 12:56:15;;;;;;;12.50;2.78;;;;;;;;;;5100710;27;20923;-79
2023/01/01 12:58:41;;;;;;;13.95;2.97;;;;;;;;;;5115128;27;20410;-78
2023/01/01 13:01:24;;;;;;;14.27;2.72;;;12.10;99.90;;;;;;5111548;27;20943;-78
2023/01/01 13:03:54;;;;;;;18.20;3.30;;;;;;;;;;5102008;28;20404;-79
2023/01/01 13:06:29;;;;;;;12.55;2.90;;;12.30;99.90;;;;;;5084386;28;20424;-78
2023/01/01 13:08:59;;;;;;;12.60;3.00;;;;;;;;;;5113802;27;20411;-80
2023/01/01 13:11:26;;;;;;;14.27;3.45;;;;;;;;;;5093449;27;20419;-81
2023/01/01 13:13:52;;;;;;;15.30;3.45;;;;;;;;;;5108113;28;20427;-81
2023/01/01 13:16:34;;;;;;;12.52;2.88;;;;;;;;;;5112345;27;20411;-81
2023/01/01 13:19:00;;;;;;;11.98;2.78;;;;;;;;;;5111761;27;20825;-80
2023/01/01 13:21:28;;;;;;;22.25;3.40;;;;;;;;;;5081017;27;20454;-79
2023/01/01 13:24:01;;;;;;;14.60;3.55;;;12.30;99.90;;;;;;5089617;28;20412;-79
2023/01/01 13:26:27;;;;;;;13.88;3.13;;;;;;;;;;5105747;27;20421;-80
2023/01/01 13:28:56;;;;;;;11.55;2.95;;;;;;;;;;5112349;27;20416;-80
2023/01/01 13:31:38;;;;;;;14.53;3.07;;;;;;;;;;5086805;27;20525;-79
2023/01/01 13:34:23;;;;;;;13.52;2.95;;;;;;;;;;5092084;28;20414;-78
2023/01/01 13:36:49;;;;;;;16.13;3.10;;;;;;;;;;5106202;27;20419;-80
2023/01/01 13:39:34;;;;;;;15.20;3.50;;;;;;;;;;5098158;27;20411;-82
2023/01/01 13:42:00;;;;;;;13.80;2.83;;;;;;;;;;5110393;27;20511;-81
2023/01/01 13:44:26;;;;;;;14.63;3.08;;;;;;;;;;5112731;27;20502;-80
2023/01/01 13:46:52;;;;;;;15.77;3.25;;;;;;;;;;5095945;27;20414;-80
2023/01/01 13:50:01;;;;;;;12.25;3.00;;;12.20;99.90;;;;;;5102429;28;20431;-80
2023/01/01 13:52:30;;;;;;;13.18;2.90;;;;;;;;;;5117530;27;20442;-80
2023/01/01 13:55:06;;;;;;;13.88;2.63;;;;;;;;;;5099843;28;20442;-79
2023/01/01 13:57:44;;;;;;;12.77;2.70;;;;;;;;;;5103177;27;20473;-79
2023/01/01 14:00:13;;;;;;;16.67;3.22;;;;;;;;;;5110387;27;20419;-80
2023/01/01 14:02:45;;;;;;;11.23;2.83;;;;;;;;;;5097442;28;20404;-79
2023/01/01 14:05:24;;;;;;;12.60;3.03;;;;;;;;;;5100385;28;20422;-79
2023/01/01 14:07:52;;;;;;;13.85;2.90;;;12.10;99.90;;;;;;5100312;28;20410;-79
2023/01/01 14:10:36;;;;;;;15.23;2.90;;;;;;;;;;5099035;28;20946;-78
2023/01/01 14:13:06;;;;;;;15.20;3.25;;;;;;;;;;5097543;28;20424;-78
2023/01/01 14:15:32;;;;;;;13.82;3.28;;;;;;;;;;5112609;28;20407;-79
2023/01/01 14:18:00;;;;;;;16.90;3.42;;;;;;;;;;5090545;28;20410;-79
2023/01/01 14:20:50;;;;;;;12.98;2.90;;;12.20;99.90;;;;;;5099644;28;20498;-80